Terminal Aerodrome Forecast
Issued by NWS Flagstaff, AZ

Home | Current Version | Previous Version | Text Only | Print | Product List | Glossary On
Versions: 1 2 3 4 5 6 7 8 9 10 11 12 13 14 15 16 17 18 19
532
FTUS45 KFGZ 291121
TAFFLG
TAF
KFLG 291121Z 2912/3012 22005KT P6SM SCT009 BKN015
      TEMPO 2912/2915 OVC008
     FM291500 23010G15KT P6SM SCT015 BKN030
     FM291800 25012G22KT P6SM BKN040
      TEMPO 2919/2923 -SHRA BKN035
     FM300300 VRB03KT P6SM SCT045=

USA.gov is the U.S. government's official web portal to all federal, state and local government web resources and services.